Time;durP1;ratioP1;P1;durP2;ratioP2;P2;SDS_P1;SDS_P2;PMS_P1;PMS_P2;Temp;Humidity;BMP_temperature;BMP_pressure;BME280_temperature;BME280_humidity;BME280_pressure;Samples;Min_cycle;Max_cycle;Signal;HPM_P1;HPM_P2
2023/04/21 00:00:16;;;;;;;2.80;1.88;;;;;;;12.88;60.58;100806.19;4989896;28;20113;-84
2023/04/21 00:02:42;;;;;;;3.65;2.53;;;;;;;12.77;60.49;100790.34;5006254;28;20022;-85
2023/04/21 00:05:12;;;;;;;1.85;1.60;;;;;;;12.78;60.92;100799.84;4989793;28;20573;-84
2023/04/21 00:07:39;;;;;;;3.53;2.20;;;;;;;12.66;61.16;100778.91;5005724;28;20562;-85
2023/04/21 00:10:08;;;;;;;3.15;2.20;;;;;;;12.64;61.66;100789.38;5022390;28;20031;-84
2023/04/21 00:12:34;;;;;;;2.55;1.83;;;;;;;12.48;61.65;100791.94;5006152;28;20053;-84
2023/04/21 00:14:59;;;;;;;4.25;2.70;;;;;;;12.49;61.31;100795.41;4989847;28;20042;-84
2023/04/21 00:17:25;;;;;;;3.75;2.03;;;;;;;12.48;61.63;100789.34;5006030;28;20042;-84
2023/04/21 00:19:50;;;;;;;3.90;2.03;;;;;;;12.40;61.68;100786.34;5006335;28;20407;-84
2023/04/21 00:22:17;;;;;;;4.95;3.15;;;;;;;12.49;61.44;100800.59;5006142;28;20052;-84
2023/04/21 00:24:42;;;;;;;3.25;2.08;;;;;;;12.36;61.87;100784.84;4989709;28;20030;-85
2023/04/21 00:27:07;;;;;;;3.35;1.92;;;;;;;12.24;61.53;100773.34;5005702;28;20045;-85
2023/04/21 00:29:33;;;;;;;5.57;2.33;;;;;;;12.30;62.04;100796.38;5006333;28;20041;-84
2023/04/21 00:32:00;;;;;;;4.38;1.38;;;;;;;12.27;62.23;100796.53;4989742;28;20073;-84
2023/04/21 00:34:26;;;;;;;3.08;2.28;;;;;;;12.30;61.92;100796.38;4989931;28;20026;-84
2023/04/21 00:36:51;;;;;;;2.00;1.60;;;;;;;12.18;62.16;100802.19;5005715;28;20489;-84
2023/04/21 00:39:17;;;;;;;2.88;1.80;;;;;;;12.10;62.60;100786.22;5005737;28;20030;-84
2023/04/21 00:41:42;;;;;;;4.03;1.90;;;;;;;12.19;62.32;100801.31;5005702;28;20026;-84
2023/04/21 00:44:08;;;;;;;2.53;1.95;;;;;;;12.15;62.53;100798.94;5005911;28;20488;-84
2023/04/21 00:46:34;;;;;;;3.40;2.35;;;;;;;11.98;62.87;100786.84;5005576;28;21217;-84
2023/04/21 00:48:59;;;;;;;3.30;2.33;;;;;;;12.02;63.45;100801.34;4989449;28;20385;-84
2023/04/21 00:51:25;;;;;;;3.55;2.08;;;;;;;12.00;63.31;100798.00;5006528;28;20026;-84
2023/04/21 00:53:51;;;;;;;3.10;1.88;;;;;;;11.88;63.94;100794.28;5008820;28;20081;-84
2023/04/21 00:56:17;;;;;;;3.55;2.30;;;;;;;11.95;63.91;100795.63;5008883;28;20031;-85
2023/04/21 00:58:42;;;;;;;3.55;3.00;;;;;;;11.89;63.61;100795.09;5008953;28;20030;-84
2023/04/21 01:01:08;;;;;;;2.63;1.70;;;;;;;11.61;64.40;100749.03;5009331;28;20137;-84
2023/04/21 01:03:33;;;;;;;3.17;1.98;;;;;;;11.84;64.36;100797.13;4994054;28;20084;-84
2023/04/21 01:05:59;;;;;;;2.08;1.63;;;;;;;11.83;64.67;100790.25;5008805;28;20126;-84
2023/04/21 01:08:25;;;;;;;3.03;2.00;;;;;;;11.60;64.87;100768.91;5008993;28;20045;-85
2023/04/21 01:10:51;;;;;;;5.10;2.65;;;;;;;11.75;64.59;100791.44;5008645;28;20035;-84
2023/04/21 01:13:19;;;;;;;3.80;2.15;;;;;;;11.75;64.56;100788.00;5008951;28;20023;-84
2023/04/21 01:15:45;;;;;;;1.80;1.55;;;;;;;11.75;64.43;100795.78;5008549;28;20523;-84
2023/04/21 01:18:10;;;;;;;3.65;2.55;;;;;;;11.74;64.35;100782.00;4992502;28;20034;-84
2023/04/21 01:20:36;;;;;;;3.80;2.58;;;;;;;11.76;64.45;100790.53;5008637;28;20030;-84
2023/04/21 01:23:01;;;;;;;4.63;2.72;;;;;;;11.65;64.45;100768.66;5008584;28;20062;-84
2023/04/21 01:25:27;;;;;;;2.97;2.13;;;;;;;11.71;64.51;100776.16;5008549;28;21133;-84
2023/04/21 01:27:52;;;;;;;3.13;2.25;;;;;;;11.60;64.31;100761.16;5024683;28;20030;-84
2023/04/21 01:30:18;;;;;;;5.13;3.20;;;;;;;11.74;64.82;100784.59;5008316;28;20126;-84
2023/04/21 01:32:43;;;;;;;11.43;3.08;;;;;;;11.61;65.28;100780.97;5008542;28;20030;-84
2023/04/21 01:35:09;;;;;;;4.03;2.42;;;;;;;11.58;65.68;100786.28;5008506;28;20030;-84
2023/04/21 01:37:34;;;;;;;3.00;2.30;;;;;;;11.54;65.94;100782.19;5008333;28;20027;-84
2023/04/21 01:40:03;;;;;;;3.47;2.58;;;;;;;11.60;65.95;100774.09;5008167;28;20057;-84
2023/04/21 01:42:29;;;;;;;5.32;3.22;;;;;;;11.57;65.40;100776.00;5008095;28;20404;-84
2023/04/21 01:44:54;;;;;;;5.97;2.88;;;;;;;11.59;65.74;100782.75;4991900;28;20038;-84
2023/04/21 01:47:20;;;;;;;2.75;1.90;;;;;;;11.58;65.37;100783.69;5008194;28;20076;-84
2023/04/21 01:49:45;;;;;;;3.05;2.55;;;;;;;11.52;65.49;100768.47;4991518;28;20476;-83
2023/04/21 01:52:11;;;;;;;3.20;2.20;;;;;;;11.63;65.56;100775.69;5008161;28;20030;-84
2023/04/21 01:54:36;;;;;;;3.95;2.85;;;;;;;11.47;65.56;100779.03;4991617;28;20034;-84
2023/04/21 01:57:02;;;;;;;3.38;2.65;;;;;;;11.40;65.65;100782.00;5008055;28;20381;-83
2023/04/21 01:59:27;;;;;;;4.65;2.50;;;;;;;11.36;65.56;100775.31;5007744;28;20141;-84
2023/04/21 02:01:53;;;;;;;3.80;2.55;;;;;;;11.32;65.88;100784.16;5007715;28;20047;-84
2023/04/21 02:04:19;;;;;;;2.67;1.83;;;;;;;11.25;66.31;100775.00;5007794;28;20030;-84
2023/04/21 02:06:44;;;;;;;3.28;2.35;;;;;;;11.13;65.99;100755.75;5007812;28;20037;-84
2023/04/21 02:09:10;;;;;;;2.70;2.20;;;;;;;11.18;66.48;100772.72;5007634;28;20030;-84
2023/04/21 02:11:35;;;;;;;3.90;2.90;;;;;;;11.19;66.89;100774.38;5007741;28;20034;-85
2023/04/21 02:14:01;;;;;;;4.78;3.03;;;;;;;11.02;66.66;100761.44;5007752;28;20611;-84
2023/04/21 02:16:27;;;;;;;3.65;2.50;;;;;;;11.12;67.20;100756.66;5007701;28;20035;-84
2023/04/21 02:18:53;;;;;;;4.90;3.05;;;;;;;11.05;67.37;100745.75;5007420;28;20042;-84
2023/04/21 02:21:20;;;;;;;3.13;2.22;;;;;;;11.13;67.85;100753.16;4991090;28;20029;-84
2023/04/21 02:23:45;;;;;;;2.75;2.20;;;;;;;11.19;67.58;100774.38;5007532;28;20408;-84
2023/04/21 02:26:11;;;;;;;3.97;2.72;;;;;;;11.25;67.35;100772.44;5007348;28;20022;-84
2023/04/21 02:28:36;;;;;;;3.42;2.25;;;;;;;11.29;67.26;100772.19;5007309;28;20487;-84
2023/04/21 02:31:02;;;;;;;4.90;2.83;;;;;;;11.08;67.32;100739.59;5007295;28;20396;-84
2023/04/21 02:33:27;;;;;;;3.33;2.20;;;;;;;11.23;67.33;100774.25;4992334;28;20468;-84
2023/04/21 02:35:52;;;;;;;3.35;2.55;;;;;;;11.16;67.58;100763.34;5006877;28;20030;-84
2023/04/21 02:38:18;;;;;;;3.17;2.40;;;;;;;11.10;67.73;100755.88;5007293;28;20539;-84
2023/04/21 02:40:43;;;;;;;3.13;2.63;;;;;;;11.06;68.13;100760.38;5007615;28;20542;-84
2023/04/21 02:43:09;;;;;;;2.97;1.95;;;;;;;11.18;68.36;100774.47;5007354;28;20454;-84
2023/04/21 02:45:35;;;;;;;5.47;3.53;;;;;;;11.11;68.52;100760.13;5023472;28;20031;-84
2023/04/21 02:48:01;;;;;;;3.60;2.20;;;;;;;11.25;67.82;100772.44;5007495;28;20484;-84
2023/04/21 02:50:26;;;;;;;3.28;2.78;;;;;;;11.20;68.03;100760.53;5006678;28;20034;-84
2023/04/21 02:52:52;;;;;;;6.00;2.95;;;;;;;11.27;67.59;100765.41;5007193;28;20022;-84
2023/04/21 02:55:17;;;;;;;3.90;2.42;;;;;;;11.28;68.07;100761.91;4990824;28;20043;-84
2023/04/21 02:57:43;;;;;;;3.60;2.70;;;;;;;11.34;67.61;100759.03;4990672;28;20093;-83
2023/04/21 03:00:11;;;;;;;5.95;3.63;;;;;;;11.25;67.72;100749.13;5006941;28;20061;-84
2023/04/21 03:02:36;;;;;;;4.93;3.35;;;;;;;11.39;67.41;100764.78;5006614;28;20332;-86
2023/04/21 03:05:03;;;;;;;4.97;2.70;;;;;;;11.40;67.37;100767.31;5006456;28;20053;-86
2023/04/21 03:07:28;;;;;;;8.27;3.42;;;;;;;11.39;67.74;100777.75;5006846;28;20026;-86
2023/04/21 03:09:54;;;;;;;4.65;2.80;;;;;;;11.35;68.11;100769.31;5006713;28;20043;-86
2023/04/21 03:12:19;;;;;;;3.72;2.30;;;;;;;11.52;67.41;100778.81;5006860;28;20569;-85
2023/04/21 03:14:45;;;;;;;5.60;3.72;;;;;;;11.48;67.15;100774.69;5005979;28;20034;-86
2023/04/21 03:17:10;;;;;;;4.57;3.08;;;;;;;11.45;66.96;100765.34;5023060;28;20030;-86
2023/04/21 03:19:36;;;;;;;6.78;3.28;;;;;;;11.35;66.97;100737.38;5006168;28;20026;-86
2023/04/21 03:22:02;;;;;;;6.45;3.10;;;;;;;11.55;66.97;100770.88;4990402;28;20518;-85
2023/04/21 03:24:27;;;;;;;3.65;2.50;;;;;;;11.49;66.82;100769.44;5023031;28;20026;-85
2023/04/21 03:26:54;;;;;;;4.10;2.50;;;;;;;11.41;66.94;100760.41;5006649;28;20027;-85
2023/04/21 03:29:19;;;;;;;11.18;3.00;;;;;;;11.42;67.33;100777.63;5006319;28;20026;-86
2023/04/21 03:31:45;;;;;;;5.65;3.65;;;;;;;11.36;67.36;100760.63;5009610;28;20400;-85
2023/04/21 03:34:10;;;;;;;6.70;2.65;;;;;;;11.39;67.20;100770.81;5009531;28;20045;-85
2023/04/21 03:36:36;;;;;;;4.72;3.10;;;;;;;11.47;67.49;100780.78;5026066;28;20033;-86
2023/04/21 03:39:01;;;;;;;4.03;2.60;;;;;;;11.41;67.49;100778.53;5025989;28;20060;-85
2023/04/21 03:41:27;;;;;;;4.93;3.00;;;;;;;11.39;67.58;100775.16;5009644;28;20072;-86
2023/04/21 03:43:52;;;;;;;4.18;3.00;;;;;;;11.31;67.73;100761.78;5009592;28;20438;-86
2023/04/21 03:46:19;;;;;;;9.20;3.15;;;;;;;11.45;67.69;100791.25;5010391;28;20029;-86
2023/04/21 03:48:45;;;;;;;6.90;3.15;;;;;;;11.47;67.47;100788.56;5008967;28;20032;-87
2023/04/21 03:51:11;;;;;;;5.22;3.28;;;;;;;11.47;67.51;100793.75;5009749;28;20034;-86
2023/04/21 03:53:36;;;;;;;8.25;4.13;;;;;;;11.49;67.33;100795.34;5009295;28;20419;-85
2023/04/21 03:56:02;;;;;;;6.45;4.10;;;;;;;11.47;66.95;100792.00;4992901;28;20034;-87
2023/04/21 03:58:27;;;;;;;7.18;5.13;;;;;;;11.38;66.60;100773.47;5008940;28;20080;-86
2023/04/21 04:00:53;;;;;;;5.28;3.83;;;;;;;11.46;67.99;100797.25;5006531;28;20026;-86
2023/04/21 04:03:18;;;;;;;5.20;3.22;;;;;;;11.47;67.03;100792.00;5008978;28;20033;-86
2023/04/21 04:05:44;;;;;;;5.55;4.35;;;;;;;11.54;66.75;100810.66;5010201;28;20041;-85
2023/04/21 04:08:09;;;;;;;6.57;2.63;;;;;;;11.27;67.20;100755.88;5008996;28;20033;-89
2023/04/21 04:10:35;;;;;;;4.72;3.15;;;;;;;11.45;67.81;100795.59;5010420;28;20025;-86
2023/04/21 04:13:00;;;;;;;5.03;2.28;;;;;;;11.39;67.44;100799.31;5009967;28;20037;-87
2023/04/21 04:15:26;;;;;;;4.05;2.70;;;;;;;11.33;68.01;100793.59;5010099;28;20037;-86
2023/04/21 04:17:52;;;;;;;9.70;3.33;;;;;;;11.40;68.14;100800.13;5009290;28;20040;-90
2023/04/21 04:20:17;;;;;;;3.13;2.53;;;;;;;11.46;67.92;100805.88;5008744;28;20399;-87
2023/04/21 04:22:43;;;;;;;6.43;3.35;;;;;;;11.50;67.88;100814.31;5009569;28;20037;-87
2023/04/21 04:25:08;;;;;;;3.70;2.95;;;;;;;11.57;67.56;100812.25;4993391;28;20074;-92
2023/04/21 04:27:34;;;;;;;3.88;3.00;;;;;;;11.26;67.51;100761.16;5011397;28;20026;-90
2023/04/21 04:29:59;;;;;;;4.90;2.78;;;;;;;11.41;67.92;100809.63;5012432;28;20026;-92
2023/04/21 04:32:28;;;;;;;4.90;2.40;;;;;;;11.36;67.77;100807.22;5029998;28;20474;-91
2023/04/21 04:34:54;;;;;;;3.67;3.05;;;;;;;11.40;68.03;100818.28;5018326;28;20145;-92
2023/04/21 04:37:20;;;;;;;4.22;2.63;;;;;;;11.32;68.21;100817.84;5013739;28;20120;-92
2023/04/21 04:39:46;;;;;;;3.55;2.55;;;;;;;11.31;68.17;100824.78;5014765;28;20103;-90
2023/04/21 04:42:13;;;;;;;7.90;3.30;;;;;;;11.36;68.56;100821.94;5013374;28;20488;-85
2023/04/21 04:44:40;;;;;;;5.22;3.38;;;;;;;11.28;68.63;100811.94;5013843;28;20033;-86
2023/04/21 04:47:06;;;;;;;5.10;2.65;;;;;;;11.43;68.49;100829.34;5013004;28;20116;-86
2023/04/21 04:49:31;;;;;;;6.78;3.08;;;;;;;11.43;68.20;100812.97;5013763;28;20029;-85
2023/04/21 04:51:57;;;;;;;4.07;2.97;;;;;;;11.58;67.92;100837.25;4997920;28;20054;-92
2023/04/21 04:54:24;;;;;;;3.50;2.47;;;;;;;11.68;68.07;100830.69;5029617;28;20053;-92
2023/04/21 04:56:49;;;;;;;6.32;3.83;;;;;;;11.80;68.01;100834.47;5028161;28;20084;-88
2023/04/21 04:59:15;;;;;;;4.47;3.33;;;;;;;11.94;67.07;100843.22;5011606;28;20050;-94
2023/04/21 05:01:41;;;;;;;5.47;3.65;;;;;;;12.06;67.68;100841.75;5010556;28;20037;-84
2023/04/21 05:04:06;;;;;;;6.40;4.13;;;;;;;12.06;66.59;100839.16;5011812;28;20081;-91
2023/04/21 05:06:32;;;;;;;3.97;2.95;;;;;;;12.13;67.32;100843.13;5011023;28;20432;-93
2023/04/21 05:08:57;;;;;;;4.50;3.17;;;;;;;12.10;66.80;100821.69;5015344;28;20068;-91
2023/04/21 05:11:23;;;;;;;8.50;4.03;;;;;;;12.33;67.33;100840.31;5011212;28;20033;-90
2023/04/21 05:13:48;;;;;;;4.38;3.22;;;;;;;12.44;66.31;100852.72;5011870;28;20033;-92
2023/04/21 05:16:13;;;;;;;4.38;3.15;;;;;;;12.38;67.11;100828.84;5011282;28;20030;-85
2023/04/21 05:18:39;;;;;;;5.13;3.70;;;;;;;12.58;66.60;100857.16;5022859;28;20486;-90
2023/04/21 05:21:05;;;;;;;7.00;3.78;;;;;;;12.66;66.74;100849.81;5042625;28;20454;-84
2023/04/21 05:23:30;;;;;;;7.85;3.20;;;;;;;12.80;66.59;100846.47;5044707;28;20025;-85
2023/04/21 05:25:55;;;;;;;6.93;3.75;;;;;;;12.70;65.82;100830.56;5025081;28;20034;-91
2023/04/21 05:28:22;;;;;;;4.03;2.83;;;;;;;12.77;66.22;100828.47;5020709;28;20541;-90
2023/04/21 05:30:47;;;;;;;6.25;3.55;;;;;;;12.98;65.88;100829.91;5012125;28;20039;-88
2023/04/21 05:33:13;;;;;;;10.02;3.80;;;;;;;13.19;65.58;100846.06;5027583;28;20395;-89
2023/04/21 05:35:38;;;;;;;21.60;5.88;;;;;;;13.27;64.98;100846.44;5011989;28;20040;-91
2023/04/21 05:38:04;;;;;;;5.97;3.95;;;;;;;13.46;64.78;100856.63;5010284;28;20491;-93
2023/04/21 05:40:30;;;;;;;9.23;4.07;;;;;;;13.61;63.86;100849.75;5012414;28;20028;-90
2023/04/21 05:42:55;;;;;;;5.18;3.22;;;;;;;13.72;63.46;100847.34;5010806;28;20030;-91
2023/04/21 05:45:21;;;;;;;7.47;4.38;;;;;;;13.77;63.07;100840.13;5028074;28;20092;-91
2023/04/21 05:47:46;;;;;;;5.43;3.22;;;;;;;13.95;62.70;100844.22;5010504;28;20037;-89
2023/04/21 05:50:12;;;;;;;6.35;4.18;;;;;;;14.11;63.29;100848.53;5026326;28;20033;-88
2023/04/21 05:52:37;;;;;;;8.32;5.45;;;;;;;14.23;61.82;100840.81;5021876;28;20033;-89
2023/04/21 05:55:03;;;;;;;6.80;4.22;;;;;;;14.31;61.91;100845.53;5032108;28;20470;-85
2023/04/21 05:57:28;;;;;;;8.40;5.22;;;;;;;14.45;62.49;100844.72;5026241;28;21508;-89
2023/04/21 05:59:54;;;;;;;5.85;3.83;;;;;;;14.60;61.67;100856.81;5009953;28;20427;-91
2023/04/21 06:02:19;;;;;;;4.93;3.72;;;;;;;14.70;60.79;100847.50;5011256;28;20038;-91
2023/04/21 06:04:45;;;;;;;7.05;4.60;;;;;;;14.84;62.12;100849.22;5027282;28;20029;-94
2023/04/21 06:07:12;;;;;;;6.10;4.70;;;;;;;14.80;59.96;100816.50;5021943;28;20091;-92
2023/04/21 06:09:38;;;;;;;9.85;4.95;;;;;;;15.24;59.83;100862.31;5030202;28;20036;-87
2023/04/21 06:12:04;;;;;;;5.93;3.78;;;;;;;15.22;59.55;100857.19;5028424;28;20053;-91
2023/04/21 06:14:30;;;;;;;5.72;2.85;;;;;;;15.30;58.98;100862.75;5015434;28;20032;-88
2023/04/21 06:16:55;;;;;;;8.18;4.07;;;;;;;15.40;58.61;100852.56;5041947;28;20033;-91
2023/04/21 06:19:20;;;;;;;8.15;4.38;;;;;;;15.44;58.63;100854.06;4998095;28;20037;-89
2023/04/21 06:21:46;;;;;;;5.57;3.90;;;;;;;15.57;57.25;100857.50;5047677;28;20025;-92
2023/04/21 06:24:11;;;;;;;7.70;5.13;;;;;;;15.57;56.82;100831.44;5038557;28;20033;-88
2023/04/21 06:26:37;;;;;;;10.18;3.88;;;;;;;15.76;55.72;100851.94;5008914;28;20026;-89
2023/04/21 06:29:02;;;;;;;7.57;3.40;;;;;;;15.86;55.02;100850.38;5024599;28;20025;-87
2023/04/21 06:31:28;;;;;;;7.25;3.95;;;;;;;15.82;55.05;100827.22;5014414;28;20037;-86
2023/04/21 06:33:53;;;;;;;11.00;4.25;;;;;;;15.92;55.81;100823.03;5008500;28;20030;-87
2023/04/21 06:36:20;;;;;;;4.80;3.30;;;;;;;16.17;54.16;100854.34;5009032;28;20033;-91
2023/04/21 06:38:46;;;;;;;6.82;4.10;;;;;;;16.16;54.26;100844.84;5013499;28;20518;-84
2023/04/21 06:41:11;;;;;;;6.72;3.88;;;;;;;16.31;53.10;100856.84;5025717;28;20041;-86
2023/04/21 06:43:37;;;;;;;5.53;3.40;;;;;;;16.15;53.33;100834.53;5029433;28;20025;-85
2023/04/21 06:46:02;;;;;;;5.63;3.92;;;;;;;16.30;53.78;100847.34;5028569;28;20469;-87
2023/04/21 06:48:29;;;;;;;5.40;2.72;;;;;;;16.40;53.58;100857.97;5045070;28;20075;-86
2023/04/21 06:50:54;;;;;;;8.07;4.60;;;;;;;16.49;53.01;100859.94;5018579;28;20026;-85
2023/04/21 06:53:20;;;;;;;8.70;4.35;;;;;;;16.60;52.19;100848.75;5035491;28;20404;-90
2023/04/21 06:55:46;;;;;;;6.85;4.03;;;;;;;16.66;52.81;100850.09;5014234;28;20032;-88
2023/04/21 06:58:12;;;;;;;11.43;4.97;;;;;;;16.78;51.96;100850.09;5027762;28;20048;-85
2023/04/21 07:00:37;;;;;;;9.38;5.53;;;;;;;16.66;51.36;100809.16;5016972;28;20113;-89
2023/04/21 07:03:03;;;;;;;7.03;4.25;;;;;;;16.89;51.29;100836.25;5009457;28;20454;-87
2023/04/21 07:05:28;;;;;;;10.98;5.00;;;;;;;17.09;52.62;100863.56;5029398;28;21024;-93
2023/04/21 07:07:58;;;;;;;7.68;4.63;;;;;;;17.12;52.08;100842.47;5030225;28;20037;-88
2023/04/21 07:10:26;;;;;;;11.93;4.63;;;;;;;17.23;51.66;100854.75;5045158;28;20033;-92
2023/04/21 07:12:52;;;;;;;8.30;4.60;;;;;;;17.26;52.18;100842.28;5016435;28;20037;-91
2023/04/21 07:15:18;;;;;;;6.90;4.20;;;;;;;17.37;52.85;100846.72;5009577;28;20036;-89
2023/04/21 07:17:43;;;;;;;4.03;2.85;;;;;;;17.49;52.00;100849.25;5015314;28;20137;-93
2023/04/21 07:20:09;;;;;;;6.40;4.38;;;;;;;17.44;50.85;100813.94;5030209;28;20045;-91
2023/04/21 07:22:35;;;;;;;7.75;3.55;;;;;;;17.72;50.21;100846.75;5008877;28;20025;-86
2023/04/21 07:25:05;;;;;;;6.57;4.10;;;;;;;17.86;49.46;100849.13;5028711;28;20388;-89
2023/04/21 07:27:31;;;;;;;9.20;4.32;;;;;;;18.04;49.24;100841.69;5014287;28;20053;-86
2023/04/21 07:29:57;;;;;;;10.02;4.43;;;;;;;18.03;49.20;100835.59;5008423;28;20487;-92
2023/04/21 07:32:22;;;;;;;8.10;4.60;;;;;;;18.23;49.12;100852.41;5015933;28;20025;-91
2023/04/21 07:34:48;;;;;;;6.00;3.80;;;;;;;18.40;47.21;100860.75;5018370;28;20040;-89
2023/04/21 07:37:15;;;;;;;8.57;4.45;;;;;;;18.37;46.52;100858.34;5009487;28;20025;-93
2023/04/21 07:39:40;;;;;;;9.90;3.70;;;;;;;18.47;46.86;100859.28;5025193;28;20072;-88
2023/04/21 07:42:07;;;;;;;10.00;3.60;;;;;;;18.29;47.10;100830.16;5008948;28;20033;-87
2023/04/21 07:44:33;;;;;;;7.18;4.18;;;;;;;18.50;47.05;100862.53;5010058;28;20026;-87
2023/04/21 07:46:58;;;;;;;6.40;4.20;;;;;;;18.57;46.16;100868.09;5007483;28;20048;-94
2023/04/21 07:49:24;;;;;;;5.28;3.60;;;;;;;18.57;46.41;100866.31;5031671;28;20407;-89
2023/04/21 07:51:49;;;;;;;5.75;3.92;;;;;;;18.56;46.96;100863.81;5045895;28;20033;-89
2023/04/21 07:54:15;;;;;;;9.63;4.28;;;;;;;18.67;47.41;100852.50;5029017;28;20030;-86
2023/04/21 07:56:40;;;;;;;8.05;3.95;;;;;;;18.88;46.47;100869.19;5029159;28;20044;-91
2023/04/21 07:59:05;;;;;;;7.15;3.75;;;;;;;19.04;45.98;100869.59;5010008;28;20089;-88
2023/04/21 08:01:31;;;;;;;7.03;4.65;;;;;;;19.05;45.75;100855.53;5013395;28;20030;-90
2023/04/21 08:03:56;;;;;;;9.25;4.57;;;;;;;19.14;46.18;100878.38;5012592;28;20064;-93
2023/04/21 08:06:22;;;;;;;4.15;3.17;;;;;;;19.12;46.56;100871.59;5030373;28;20030;-88
2023/04/21 08:08:47;;;;;;;9.75;5.30;;;;;;;19.18;45.90;100871.97;5024905;28;20017;-91
2023/04/21 08:11:13;;;;;;;13.95;4.43;;;;;;;19.32;45.05;100872.63;5016186;28;20038;-87
2023/04/21 08:13:38;;;;;;;6.65;3.95;;;;;;;19.43;47.09;100880.44;5024010;28;20112;-86
2023/04/21 08:16:04;;;;;;;5.65;3.67;;;;;;;19.56;45.82;100875.88;5047852;28;20030;-91
2023/04/21 08:18:30;;;;;;;13.20;4.97;;;;;;;19.70;45.75;100867.69;5031274;28;20033;-88
2023/04/21 08:20:56;;;;;;;7.00;3.95;;;;;;;19.82;45.82;100857.13;5031327;28;20079;-86
2023/04/21 08:23:22;;;;;;;5.03;3.53;;;;;;;19.91;43.94;100861.59;5021632;28;20030;-87
2023/04/21 08:25:47;;;;;;;7.32;3.83;;;;;;;19.85;45.07;100862.09;5032211;28;20044;-87
2023/04/21 08:28:14;;;;;;;6.28;3.75;;;;;;;19.60;45.20;100853.69;5026164;28;20474;-90
2023/04/21 08:30:40;;;;;;;5.75;3.65;;;;;;;19.72;46.26;100839.53;5047583;28;20032;-89
2023/04/21 08:33:07;;;;;;;4.97;3.47;;;;;;;19.97;44.10;100866.34;5049007;28;20487;-94
2023/04/21 08:35:33;;;;;;;6.25;4.22;;;;;;;20.03;44.79;100842.19;5033394;28;20037;-92
2023/04/21 08:37:58;;;;;;;4.20;2.92;;;;;;;20.08;44.61;100840.00;5025759;28;20056;-93
2023/04/21 08:40:28;;;;;;;4.28;2.88;;;;;;;20.26;44.10;100851.56;5032821;28;20029;-91
2023/04/21 08:42:53;;;;;;;6.45;3.50;;;;;;;20.09;45.20;100831.16;5033380;28;20565;-86
2023/04/21 08:45:19;;;;;;;8.25;4.47;;;;;;;20.24;43.47;100850.84;5013167;28;20037;-92
2023/04/21 08:47:44;;;;;;;5.60;3.75;;;;;;;20.31;44.29;100851.97;5010977;28;20380;-85
2023/04/21 08:50:11;;;;;;;4.50;3.33;;;;;;;20.28;43.48;100820.72;5010018;28;20045;-84
2023/04/21 08:52:37;;;;;;;7.60;4.03;;;;;;;20.58;42.65;100840.09;5012975;28;20033;-91
2023/04/21 08:55:03;;;;;;;6.90;3.90;;;;;;;20.51;43.02;100831.06;5043117;28;20061;-91
2023/04/21 08:57:29;;;;;;;9.05;3.42;;;;;;;20.67;42.05;100843.72;5030545;28;20026;-89
2023/04/21 08:59:54;;;;;;;5.63;3.63;;;;;;;20.73;41.77;100840.53;5032028;28;20048;-87
2023/04/21 09:02:20;;;;;;;5.05;3.60;;;;;;;20.86;41.29;100846.38;5023971;28;20491;-92
2023/04/21 09:04:50;;;;;;;5.82;3.83;;;;;;;20.69;40.81;100844.41;5029312;28;20092;-91
2023/04/21 09:07:31;;;;;;;5.97;3.63;;;;;;;20.61;40.98;100852.94;5024688;28;20580;-87
2023/04/21 09:09:57;;;;;;;8.10;4.20;;;;;;;20.43;43.54;100844.03;5027528;28;20064;-88
2023/04/21 09:12:22;;;;;;;6.80;3.97;;;;;;;20.37;41.85;100844.56;5034099;28;20030;-90
2023/04/21 09:17:32;;;;;;;3.60;2.72;;;;;;;20.03;41.96;100829.03;5010497;28;20037;-91
2023/04/21 09:20:18;;;;;;;6.05;4.00;;;;;;;20.17;42.01;100843.66;5015958;28;20033;-92
2023/04/21 09:22:44;;;;;;;9.48;3.72;;;;;;;19.96;40.23;100846.28;5025081;28;20018;-93
2023/04/21 09:25:09;;;;;;;7.43;3.85;;;;;;;19.87;42.08;100823.44;5031270;28;20087;-93
2023/04/21 09:27:35;;;;;;;5.50;3.13;;;;;;;19.73;41.48;100807.06;5005614;28;20026;-92
2023/04/21 09:30:06;;;;;;;5.60;3.35;;;;;;;20.01;41.22;100834.44;5017769;28;20486;-90
2023/04/21 09:32:38;;;;;;;6.93;3.40;;;;;;;20.09;41.15;100827.69;5029452;28;20116;-91
2023/04/21 09:35:05;;;;;;;;;;;;;;;20.22;41.46;100837.00;4994931;28;20026;-87
2023/04/21 09:37:33;;;;;;;4.97;3.38;;;;;;;20.09;40.86;100804.91;5012159;28;19986;-92
2023/04/21 09:39:59;;;;;;;7.18;3.50;;;;;;;20.40;41.80;100833.75;5012253;28;20033;-88
2023/04/21 09:42:29;;;;;;;4.70;3.22;;;;;;;20.60;41.50;100819.75;5011143;28;20104;-89
2023/04/21 09:44:55;;;;;;;4.60;2.95;;;;;;;20.85;40.87;100829.78;5008551;28;20057;-93
2023/04/21 09:47:20;;;;;;;6.30;3.25;;;;;;;20.68;39.87;100830.44;4997508;28;20037;-93
2023/04/21 09:49:46;;;;;;;8.40;3.55;;;;;;;20.41;40.17;100825.75;5026296;28;20033;-90
2023/04/21 09:52:12;;;;;;;10.43;3.95;;;;;;;20.59;40.92;100828.59;5009703;28;20080;-93
2023/04/21 09:54:44;;;;;;;5.28;3.50;;;;;;;20.81;39.99;100817.84;5013662;28;20022;-87
2023/04/21 09:57:10;;;;;;;5.60;3.13;;;;;;;20.79;39.04;100830.31;5006698;28;20038;-86
2023/04/21 09:59:36;;;;;;;5.20;3.45;;;;;;;20.95;38.16;100832.41;5001403;28;20475;-92
2023/04/21 10:02:05;;;;;;;7.28;3.13;;;;;;;20.95;40.28;100823.69;5009542;28;20121;-88
2023/04/21 10:04:31;;;;;;;4.70;2.88;;;;;;;21.06;39.86;100810.41;5011934;28;20498;-89
2023/04/21 10:06:58;;;;;;;3.97;2.20;;;;;;;21.14;39.38;100828.97;5025627;28;20030;-92
2023/04/21 10:09:24;;;;;;;5.82;3.13;;;;;;;21.33;38.90;100813.19;5009407;28;20030;-90
2023/04/21 10:11:50;;;;;;;4.45;2.63;;;;;;;21.57;37.68;100818.00;5019612;28;20085;-94
2023/04/21 10:14:16;;;;;;;7.55;3.35;;;;;;;21.71;37.81;100816.72;5033499;28;20030;-93
2023/04/21 10:16:41;;;;;;;6.97;3.08;;;;;;;21.82;38.24;100811.28;5046916;28;20044;-87
2023/04/21 10:19:26;;;;;;;5.65;3.63;;;;;;;21.79;37.96;100798.41;5040565;28;20029;-92
2023/04/21 10:21:55;;;;;;;5.03;3.25;;;;;;;21.88;38.51;100813.34;5015659;28;20036;-92
2023/04/21 10:24:20;;;;;;;3.97;2.88;;;;;;;21.64;38.03;100779.63;5011899;28;20038;-90
2023/04/21 10:26:46;;;;;;;14.00;8.18;;;;;;;21.81;38.73;100785.94;5012611;28;20025;-90
2023/04/21 10:29:11;;;;;;;8.88;3.67;;;;;;;21.66;38.78;100766.31;5013392;28;20040;-92
2023/04/21 10:31:43;;;;;;;7.22;2.83;;;;;;;21.83;38.75;100791.91;5008172;28;20120;-91
2023/04/21 10:34:09;;;;;;;5.03;2.90;;;;;;;22.01;38.24;100803.31;5009733;28;20035;-88
2023/04/21 10:36:44;;;;;;;5.32;3.22;;;;;;;21.99;37.32;100793.91;5009490;28;20073;-92
2023/04/21 10:39:14;;;;;;;4.15;2.90;;;;;;;22.07;37.19;100801.13;5011380;28;20037;-93
2023/04/21 10:41:40;;;;;;;7.13;3.05;;;;;;;22.35;37.89;100800.16;5010279;28;20411;-90
2023/04/21 10:44:06;;;;;;;5.75;2.83;;;;;;;22.30;36.58;100784.78;4985658;28;20034;-90
2023/04/21 10:46:51;;;;;;;3.53;2.60;;;;;;;22.52;36.69;100801.19;5010088;28;20484;-94
2023/04/21 10:49:23;;;;;;;6.82;2.72;;;;;;;22.48;34.96;100795.38;4992356;28;20038;-93
2023/04/21 10:51:57;;;;;;;;;;;;;;;22.63;36.15;100800.16;4992092;28;20105;-89
2023/04/21 10:54:30;;;;;;;4.88;2.78;;;;;;;22.34;36.12;100772.16;4990891;28;19948;-87
2023/04/21 10:56:56;;;;;;;4.65;3.08;;;;;;;22.45;36.22;100776.38;4991097;28;20034;-89
2023/04/21 10:59:23;;;;;;;4.63;3.40;;;;;;;22.77;36.35;100792.53;4979074;28;20054;-88
2023/04/21 11:01:48;;;;;;;3.78;2.83;;;;;;;22.79;35.57;100798.50;5012795;28;20026;-93
2023/04/21 11:04:18;;;;;;;5.07;3.03;;;;;;;22.66;35.72;100786.66;5033211;28;20068;-94
2023/04/21 11:07:26;;;;;;;5.55;3.10;;;;;;;22.67;35.01;100783.03;4988276;28;20021;-87
2023/04/21 11:10:06;;;;;;;4.47;2.65;;;;;;;22.55;35.82;100774.53;4988149;28;20134;-89
2023/04/21 11:12:33;;;;;;;5.68;3.30;;;;;;;22.64;36.62;100772.81;4959377;28;20034;-91
2023/04/21 11:15:01;;;;;;;4.57;3.00;;;;;;;22.84;35.57;100791.00;4994154;28;20066;-92
2023/04/21 11:17:26;;;;;;;4.78;3.10;;;;;;;22.79;36.43;100787.94;5009704;28;20123;-90
2023/04/21 11:19:53;;;;;;;5.35;3.25;;;;;;;22.80;35.65;100791.41;5009948;28;20034;-91
2023/04/21 11:22:19;;;;;;;4.10;2.45;;;;;;;22.76;35.99;100792.69;5011329;28;20030;-92